Search for airport 
image banner adimage banner adimage banner ad
image banner ad

6PN5 - Sam's Field

Located in Bradford, United States

ICAO - 6PN5, IATA -

Data provided by Airmate  

General information

Coordinates: N41°54'27" W78°37'44"
Elevation is 1540 feet MSL.
Magnetic variation is -10° East
View others Airports in Pennsylvania

Operational data

Special qualification required
Current time UTC:
Current local time:
Weather at : KBFD - Bradford Rgnl ( 12 km )
METAR: KBFD 091653Z AUTO 18004KT 4SM -RA SCT011 OVC018 03/01 A2995 RMK AO2 RAB1559 SLP155 P0003 T00330006
TAF: KBFD 091537Z 0916/1012 22006KT 4SM -RA BR OVC020 FM091800 13008G15KT 3SM -RASN BR OVC008 FM100200 05008G20KT 2SM -RASN BR OVC005 FM101000 34008G15KT P6SM BKN009 OVC015
View NOTAMs / SUP AIP / TFR affecting this airport [VIEW]
Communications frequencies: [VIEW]

Runways:

RWY identifierQFULength (ft)Width (ft)SurfaceLDA (ft)
091300100GRASS
271300100GRASS

Airport contact information

Address: Bradford United States

Satellite view of 6PN5